Avenel, New Jersey
Current Conditions -  °F | °C
As of 2:55 AM on Saturday 25 Oct 2014 (Local Time) from KLDJ Reporting Station
Clear Clear  
Wind Chill: 56°   Ceiling: Unl
Heat Index: 56°   Visibility: 10mi
Dew Point: 43°   Wind: 9mph
Humidity: 62%   Direction: 310°NW
Pressure: 29.89"   Gusts: NA
Location:  40.58°N, 74.28°W
Report Text: KLDJ 250655Z AUTO 31008KT 10SM CLR 13/06 A2989 RMK AO2 T01320060
Loading
Personal Weather Stations






























Interactive Weather Map
Tropical Storm Tracking
New forecast layout! Learn more

10-Day Weather Forecast

Advertisements
Track Severe Weather on mobile